createdAt,value
2022-09-26T00:00:45.693Z,5.53
2022-09-26T00:03:16.535Z,5.90
2022-09-26T00:05:46.985Z,6.43
2022-09-26T00:08:17.576Z,6.40
2022-09-26T00:10:48.042Z,7.57
2022-09-26T00:13:18.908Z,7.45
2022-09-26T00:15:50.004Z,7.82
2022-09-26T00:18:20.720Z,8.20
2022-09-26T00:20:51.264Z,8.40
2022-09-26T00:23:22.054Z,7.97
2022-09-26T00:25:53.553Z,7.00
2022-09-26T00:28:24.155Z,7.05
2022-09-26T00:30:54.623Z,6.00
2022-09-26T00:33:25.890Z,6.95
2022-09-26T00:35:57.772Z,6.97
2022-09-26T00:38:28.611Z,6.90
2022-09-26T00:40:59.471Z,6.25
2022-09-26T00:43:39.360Z,6.60
2022-09-26T00:46:36.064Z,5.75
2022-09-26T00:49:09.676Z,6.43
2022-09-26T00:51:43.178Z,5.55
2022-09-26T00:54:16.454Z,6.07
2022-09-26T00:56:50.994Z,6.00
2022-09-26T00:59:31.788Z,6.20
2022-09-26T01:02:04.516Z,6.10
2022-09-26T01:04:39.665Z,7.72
2022-09-26T01:07:16.564Z,6.40
2022-09-26T01:09:48.975Z,6.47
2022-09-26T01:12:20.471Z,5.97
2022-09-26T01:14:55.370Z,6.03
2022-09-26T01:17:27.277Z,6.07
2022-09-26T01:20:25.014Z,5.35
2022-09-26T01:23:07.567Z,5.72
2022-09-26T01:26:02.909Z,6.28
2022-09-26T01:28:46.355Z,5.90
2022-09-26T01:31:33.612Z,5.72
2022-09-26T01:34:16.659Z,6.40
2022-09-26T01:37:12.226Z,5.65
2022-09-26T01:39:56.946Z,5.80
2022-09-26T01:42:56.573Z,4.78
2022-09-26T01:45:56.152Z,4.53
2022-09-26T01:48:37.175Z,4.53
2022-09-26T01:51:07.873Z,4.50
2022-09-26T01:54:00.874Z,4.70
2022-09-26T01:56:38.061Z,4.00
2022-09-26T01:59:50.739Z,4.55
2022-09-26T02:02:27.584Z,4.57
2022-09-26T02:05:16.607Z,5.38
2022-09-26T02:08:17.449Z,5.57
2022-09-26T02:10:52.928Z,5.65
2022-09-26T02:13:49.870Z,5.95
2022-09-26T02:16:36.896Z,5.72
2022-09-26T02:19:34.911Z,6.03
2022-09-26T02:22:05.846Z,6.28
2022-09-26T02:24:36.357Z,6.95
2022-09-26T02:27:08.144Z,6.70
2022-09-26T02:29:39.489Z,7.55
2022-09-26T02:32:20.325Z,7.50
2022-09-26T02:34:52.099Z,9.27
2022-09-26T02:37:23.505Z,9.40
2022-09-26T02:39:55.055Z,9.90
2022-09-26T02:42:45.281Z,8.20
2022-09-26T02:45:55.812Z,6.82
2022-09-26T02:48:42.794Z,7.38
2022-09-26T02:51:51.725Z,6.80
2022-09-26T02:54:52.418Z,6.10
2022-09-26T02:57:29.836Z,5.95
2022-09-26T03:00:10.581Z,6.07
2022-09-26T03:02:59.083Z,4.90
2022-09-26T03:05:32.829Z,3.90
2022-09-26T03:08:11.211Z,3.63
2022-09-26T03:10:44.204Z,2.47
2022-09-26T03:13:17.602Z,2.60
2022-09-26T03:15:55.217Z,2.03
2022-09-26T03:18:33.999Z,2.08
2022-09-26T03:21:04.948Z,1.80
2022-09-26T03:23:36.098Z,1.60
2022-09-26T03:26:13.822Z,1.38
2022-09-26T03:28:55.226Z,2.17
2022-09-26T03:31:27.499Z,1.30
2022-09-26T03:34:03.630Z,1.50
2022-09-26T03:36:34.265Z,1.27
2022-09-26T03:39:06.254Z,1.38
2022-09-26T03:41:59.771Z,1.63
2022-09-26T03:44:34.018Z,1.13
2022-09-26T03:47:07.852Z,1.48
2022-09-26T03:49:43.266Z,1.40
2022-09-26T03:52:15.277Z,1.77
2022-09-26T03:54:47.554Z,1.20
2022-09-26T03:57:19.526Z,1.50
2022-09-26T04:00:02.565Z,1.23
2022-09-26T04:02:46.194Z,1.23
2022-09-26T04:05:30.792Z,1.13
2022-09-26T04:08:02.999Z,1.02
2022-09-26T04:10:34.576Z,1.00
2022-09-26T04:13:05.189Z,1.23
2022-09-26T04:15:36.454Z,1.15
2022-09-26T04:18:11.192Z,0.73
2022-09-26T04:20:42.503Z,0.80
2022-09-26T04:23:14.018Z,1.20
2022-09-26T04:25:44.483Z,1.20
2022-09-26T04:28:15.214Z,1.08
2022-09-26T04:30:45.648Z,0.93
2022-09-26T04:33:16.348Z,1.48
2022-09-26T04:35:51.926Z,0.77
2022-09-26T04:38:22.470Z,0.85
2022-09-26T04:40:53.609Z,0.80
2022-09-26T04:45:53.872Z,0.90
2022-09-26T04:48:24.433Z,1.05
2022-09-26T04:51:18.385Z,1.02
2022-09-26T04:53:51.725Z,1.00
2022-09-26T04:56:28.149Z,1.17
2022-09-26T04:59:00.418Z,1.08
2022-09-26T05:01:39.571Z,0.70
2022-09-26T05:04:14.165Z,0.82
2022-09-26T05:06:45.341Z,0.77
2022-09-26T05:09:25.505Z,0.82
2022-09-26T05:12:01.523Z,0.90
2022-09-26T05:14:33.168Z,1.08
2022-09-26T05:17:03.869Z,1.00
2022-09-26T05:19:35.258Z,1.05
2022-09-26T05:22:30.877Z,1.33
2022-09-26T05:25:20.500Z,1.42
2022-09-26T05:27:50.985Z,1.42
2022-09-26T05:30:22.533Z,1.05
2022-09-26T05:32:52.869Z,1.52
2022-09-26T05:38:01.106Z,1.20
2022-09-26T05:40:52.233Z,1.65
2022-09-26T05:43:26.412Z,1.50
2022-09-26T05:46:03.070Z,1.80
2022-09-26T05:48:40.087Z,1.75
2022-09-26T05:51:22.402Z,1.25
2022-09-26T05:53:53.572Z,1.63
2022-09-26T05:56:26.435Z,2.17
2022-09-26T05:59:28.623Z,1.70
2022-09-26T06:02:02.221Z,1.60
2022-09-26T06:04:56.946Z,1.40
2022-09-26T06:07:47.703Z,2.20
2022-09-26T06:10:35.228Z,1.63
2022-09-26T06:15:43.910Z,1.98
2022-09-26T06:18:14.916Z,2.03
2022-09-26T06:20:45.552Z,2.17
2022-09-26T06:23:16.814Z,2.08
2022-09-26T06:25:49.035Z,2.35
2022-09-26T06:28:21.468Z,1.95
2022-09-26T06:30:53.098Z,1.90
2022-09-26T06:33:43.556Z,1.65
2022-09-26T06:36:25.668Z,2.13
2022-09-26T06:38:58.002Z,2.38
2022-09-26T06:41:32.180Z,2.75
2022-09-26T06:44:09.219Z,2.47
2022-09-26T06:47:08.180Z,2.38
2022-09-26T06:49:41.815Z,2.40
2022-09-26T06:52:25.248Z,2.72
2022-09-26T06:54:56.690Z,2.28
2022-09-26T06:57:27.260Z,2.40
2022-09-26T06:59:58.612Z,2.92
2022-09-26T07:02:53.503Z,2.35
2022-09-26T07:05:48.248Z,3.17
2022-09-26T07:08:19.263Z,2.67
2022-09-26T07:10:49.874Z,2.75
2022-09-26T07:13:27.439Z,2.42
2022-09-26T07:16:02.479Z,3.28
2022-09-26T07:18:49.588Z,2.75
2022-09-26T07:21:25.615Z,2.78
2022-09-26T07:24:15.280Z,2.40
2022-09-26T07:26:46.403Z,3.20
2022-09-26T07:29:16.984Z,2.72
2022-09-26T07:31:48.533Z,2.22
2022-09-26T07:34:38.180Z,2.58
2022-09-26T07:37:09.000Z,2.70
2022-09-26T07:39:39.557Z,2.67
2022-09-26T07:42:11.016Z,2.63
2022-09-26T07:45:17.487Z,2.25
2022-09-26T07:47:53.093Z,2.65
2022-09-26T07:50:59.459Z,2.33
2022-09-26T07:53:43.078Z,2.63
2022-09-26T07:56:36.287Z,2.55
2022-09-26T07:59:24.932Z,2.33
2022-09-26T08:02:03.448Z,2.50
2022-09-26T08:04:37.242Z,2.65
2022-09-26T08:07:09.103Z,2.95
2022-09-26T08:09:45.064Z,2.40
2022-09-26T08:12:38.998Z,2.25
2022-09-26T08:15:29.652Z,2.50
2022-09-26T08:18:11.153Z,2.75
2022-09-26T08:20:41.866Z,2.40
2022-09-26T08:23:12.338Z,2.67
2022-09-26T08:25:44.046Z,2.53
2022-09-26T08:28:38.336Z,2.80
2022-09-26T08:31:09.844Z,3.15
2022-09-26T08:33:42.513Z,2.60
2022-09-26T08:36:15.765Z,2.88
2022-09-26T08:39:02.141Z,3.00
2022-09-26T08:42:13.340Z,3.13
2022-09-26T08:45:56.252Z,2.53
2022-09-26T08:49:17.271Z,2.72
2022-09-26T08:51:53.939Z,2.97
2022-09-26T08:54:27.863Z,2.92
2022-09-26T08:57:18.278Z,2.85
2022-09-26T08:59:50.700Z,3.13
2022-09-26T09:02:46.925Z,3.20
2022-09-26T09:05:23.943Z,3.08
2022-09-26T09:07:57.824Z,3.70
2022-09-26T09:10:47.629Z,3.65
2022-09-26T09:13:44.568Z,4.22
2022-09-26T09:17:11.886Z,4.60
2022-09-26T09:20:12.513Z,5.20
2022-09-26T09:23:43.253Z,5.18
2022-09-26T09:29:42.011Z,4.00
2022-09-26T09:33:12.497Z,3.83
2022-09-26T09:36:16.971Z,4.10
2022-09-26T09:39:08.498Z,4.28
2022-09-26T09:41:58.700Z,4.38
2022-09-26T09:44:44.323Z,4.78
2022-09-26T09:47:20.074Z,5.07
2022-09-26T09:49:51.905Z,5.45
2022-09-26T09:52:25.051Z,5.65
2022-09-26T09:55:08.558Z,5.82
2022-09-26T09:57:46.888Z,5.32
2022-09-26T10:00:29.117Z,5.63
2022-09-26T10:03:42.601Z,5.72
2022-09-26T10:06:46.579Z,5.38
2022-09-26T10:09:40.817Z,5.82
2022-09-26T10:12:31.925Z,5.18
2022-09-26T10:15:25.487Z,4.75
2022-09-26T10:18:25.692Z,4.88
2022-09-26T10:21:19.166Z,5.30
2022-09-26T10:23:51.976Z,5.80
2022-09-26T10:26:39.109Z,5.10
2022-09-26T10:29:40.741Z,3.80
2022-09-26T10:32:13.844Z,4.22
2022-09-26T10:35:09.055Z,4.22
2022-09-26T10:37:40.154Z,4.13
2022-09-26T10:40:47.999Z,4.00
2022-09-26T10:43:34.275Z,3.90
2022-09-26T10:46:20.819Z,3.50
2022-09-26T10:49:16.991Z,3.35
2022-09-26T10:52:28.463Z,3.50
2022-09-26T10:55:08.618Z,3.97
2022-09-26T10:57:46.953Z,3.75
2022-09-26T11:00:41.645Z,3.88
2022-09-26T11:03:34.574Z,4.20
2022-09-26T11:06:26.260Z,3.90
2022-09-26T11:09:04.510Z,3.55
2022-09-26T11:11:53.647Z,3.35
2022-09-26T11:14:32.461Z,2.53
2022-09-26T11:17:10.902Z,3.72
2022-09-26T11:19:58.895Z,3.40
2022-09-26T11:22:29.496Z,3.42
2022-09-26T11:25:10.964Z,3.72
2022-09-26T11:27:48.222Z,3.05
2022-09-26T11:30:31.914Z,2.95
2022-09-26T11:33:14.762Z,3.63
2022-09-26T11:36:34.630Z,3.88
2022-09-26T11:39:38.360Z,3.10
2022-09-26T11:42:23.609Z,3.10
2022-09-26T11:45:02.652Z,2.95
2022-09-26T11:48:01.914Z,3.03
2022-09-26T11:51:06.486Z,2.75
2022-09-26T11:54:15.221Z,3.03
2022-09-26T11:56:57.930Z,3.10
2022-09-26T11:59:54.227Z,3.00
2022-09-26T12:03:02.096Z,2.90
2022-09-26T12:05:44.401Z,2.67
2022-09-26T12:08:17.608Z,2.42
2022-09-26T12:11:11.841Z,2.83
2022-09-26T12:14:10.679Z,2.05
2022-09-26T12:16:53.170Z,2.08
2022-09-26T12:19:33.591Z,2.22
2022-09-26T12:22:42.221Z,2.15
2022-09-26T12:25:33.866Z,1.92
2022-09-26T12:28:21.185Z,1.88
2022-09-26T12:31:08.674Z,1.70
2022-09-26T12:34:00.215Z,1.98
2022-09-26T12:37:03.271Z,1.08
2022-09-26T12:39:49.768Z,1.17
2022-09-26T12:42:52.699Z,1.40
2022-09-26T12:46:11.279Z,1.98
2022-09-26T12:48:55.900Z,1.00
2022-09-26T12:51:41.556Z,1.20
2022-09-26T12:54:34.338Z,1.30
2022-09-26T12:57:12.689Z,4.50
2022-09-26T13:00:01.991Z,1.10
2022-09-26T13:02:57.069Z,1.42
2022-09-26T13:08:38.091Z,1.30
2022-09-26T13:11:53.647Z,1.23
2022-09-26T13:14:28.618Z,1.17
2022-09-26T13:17:08.181Z,1.00
2022-09-26T13:19:52.726Z,1.00
2022-09-26T13:22:54.856Z,0.73
2022-09-26T13:26:08.897Z,0.80
2022-09-26T13:29:12.941Z,1.02
2022-09-26T13:31:43.259Z,0.90
2022-09-26T13:34:37.171Z,0.98
2022-09-26T13:37:14.958Z,1.05
2022-09-26T13:39:53.553Z,1.13
2022-09-26T13:42:35.700Z,1.33
2022-09-26T13:45:18.732Z,0.98
2022-09-26T13:47:58.923Z,1.55
2022-09-26T13:50:46.570Z,1.23
2022-09-26T13:53:47.049Z,0.85
2022-09-26T13:56:37.577Z,1.02
2022-09-26T13:59:35.766Z,0.93
2022-09-26T14:02:28.238Z,1.00
2022-09-26T14:05:04.685Z,0.85
2022-09-26T14:07:59.490Z,0.98
2022-09-26T14:10:44.527Z,1.27
2022-09-26T14:13:23.357Z,1.60
2022-09-26T14:15:58.281Z,1.15
2022-09-26T14:18:57.814Z,0.82
2022-09-26T14:21:59.251Z,1.40
2022-09-26T14:24:40.250Z,1.17
2022-09-26T14:27:13.518Z,1.30
2022-09-26T14:29:46.601Z,1.30
2022-09-26T14:32:17.881Z,1.40
2022-09-26T14:34:55.964Z,1.60
2022-09-26T14:37:26.380Z,1.40
2022-09-26T14:40:12.167Z,1.30
2022-09-26T14:42:48.665Z,2.20
2022-09-26T14:48:15.148Z,1.70
2022-09-26T14:50:54.856Z,1.40
2022-09-26T14:53:28.232Z,1.88
2022-09-26T14:56:07.540Z,1.83
2022-09-26T14:58:41.062Z,1.83
2022-09-26T15:01:19.315Z,1.45
2022-09-26T15:04:04.936Z,1.52
2022-09-26T15:07:03.066Z,1.73
2022-09-26T15:09:52.333Z,1.73
2022-09-26T15:12:54.573Z,1.60
2022-09-26T15:15:37.283Z,1.98
2022-09-26T15:18:37.114Z,2.13
2022-09-26T15:21:18.831Z,1.58
2022-09-26T15:23:55.778Z,1.45
2022-09-26T15:26:29.720Z,1.50
2022-09-26T15:29:01.504Z,1.50
2022-09-26T15:31:45.723Z,1.60
2022-09-26T15:34:38.411Z,1.60
2022-09-26T15:37:23.226Z,1.85
2022-09-26T15:39:54.181Z,1.77
2022-09-26T15:42:46.974Z,1.10
2022-09-26T15:45:48.349Z,1.40
2022-09-26T15:48:21.736Z,1.30
2022-09-26T15:50:56.900Z,0.98
2022-09-26T15:53:41.619Z,1.13
2022-09-26T15:56:23.059Z,1.35
2022-09-26T15:59:04.571Z,1.08
2022-09-26T16:01:45.325Z,1.88
2022-09-26T16:04:24.265Z,1.15
2022-09-26T16:06:56.786Z,1.13
2022-09-26T16:09:39.221Z,1.35
2022-09-26T16:14:51.391Z,1.30
2022-09-26T16:17:26.907Z,1.00
2022-09-26T16:20:00.234Z,1.65
2022-09-26T16:22:47.766Z,1.85
2022-09-26T16:25:29.144Z,1.30
2022-09-26T16:28:04.740Z,1.00
2022-09-26T16:30:35.384Z,1.35
2022-09-26T16:33:12.448Z,1.00
2022-09-26T16:35:50.122Z,1.48
2022-09-26T16:38:38.186Z,1.35
2022-09-26T16:44:35.896Z,1.48
2022-09-26T16:47:30.383Z,1.00
2022-09-26T16:50:38.388Z,1.00
2022-09-26T16:53:11.182Z,1.63
2022-09-26T16:55:41.560Z,1.65
2022-09-26T16:58:14.836Z,0.95
2022-09-26T17:01:03.546Z,1.40
2022-09-26T17:03:34.560Z,1.55
2022-09-26T17:06:05.260Z,1.25
2022-09-26T17:08:35.765Z,1.05
2022-09-26T17:11:17.117Z,1.10
2022-09-26T17:13:50.841Z,1.52
2022-09-26T17:16:21.886Z,1.73
2022-09-26T17:18:52.428Z,1.50
2022-09-26T17:21:22.938Z,0.95
2022-09-26T17:23:53.667Z,1.20
2022-09-26T17:26:25.713Z,1.20
2022-09-26T17:28:56.232Z,1.40
2022-09-26T17:31:28.309Z,1.60
2022-09-26T17:33:58.922Z,1.25
2022-09-26T17:36:31.164Z,1.80
2022-09-26T17:39:03.696Z,1.67
2022-09-26T17:41:35.797Z,1.63
2022-09-26T17:44:06.543Z,1.20
2022-09-26T17:46:39.565Z,1.30
2022-09-26T17:49:17.869Z,1.60
2022-09-26T17:51:48.810Z,1.48
2022-09-26T17:54:21.695Z,1.45
2022-09-26T17:56:52.478Z,1.70
2022-09-26T17:59:25.709Z,1.63
2022-09-26T18:02:02.442Z,1.27
2022-09-26T18:04:33.380Z,1.17
2022-09-26T18:07:05.860Z,1.35
2022-09-26T18:09:37.575Z,1.23
2022-09-26T18:12:11.384Z,1.35
2022-09-26T18:14:43.084Z,1.33
2022-09-26T18:17:17.553Z,1.40
2022-09-26T18:19:48.324Z,1.63
2022-09-26T18:22:21.286Z,1.85
2022-09-26T18:24:53.308Z,1.30
2022-09-26T18:27:24.515Z,1.23
2022-09-26T18:29:56.144Z,1.50
2022-09-26T18:32:34.070Z,1.40
2022-09-26T18:35:04.942Z,1.45
2022-09-26T18:37:35.443Z,1.52
2022-09-26T18:40:06.155Z,1.38
2022-09-26T18:42:36.770Z,1.25
2022-09-26T18:45:09.242Z,1.15
2022-09-26T18:47:44.050Z,1.42
2022-09-26T18:50:24.924Z,1.23
2022-09-26T18:52:55.977Z,1.25
2022-09-26T18:55:45.831Z,0.95
2022-09-26T18:58:29.113Z,1.33
2022-09-26T19:01:08.760Z,1.85
2022-09-26T19:03:41.668Z,1.38
2022-09-26T19:06:31.402Z,1.70
2022-09-26T19:09:04.916Z,1.40
2022-09-26T19:11:36.484Z,1.40
2022-09-26T19:14:27.380Z,1.50
2022-09-26T19:16:58.432Z,1.77
2022-09-26T19:19:33.675Z,1.30
2022-09-26T19:22:14.258Z,1.25
2022-09-26T19:24:56.819Z,1.40
2022-09-26T19:27:34.518Z,1.50
2022-09-26T19:30:14.646Z,1.90
2022-09-26T19:32:50.516Z,1.77
2022-09-26T19:35:31.671Z,1.30
2022-09-26T19:38:03.822Z,1.10
2022-09-26T19:40:34.172Z,2.38
2022-09-26T19:43:06.994Z,1.60
2022-09-26T19:45:37.493Z,1.70
2022-09-26T19:48:10.521Z,1.90
2022-09-26T19:50:42.717Z,1.58
2022-09-26T19:53:17.954Z,1.25
2022-09-26T19:55:51.781Z,2.13
2022-09-26T19:58:25.099Z,1.65
2022-09-26T20:00:58.179Z,1.80
2022-09-26T20:03:32.964Z,1.45
2022-09-26T20:06:03.854Z,1.63
2022-09-26T20:08:34.456Z,1.73
2022-09-26T20:11:05.268Z,1.35
2022-09-26T20:13:53.854Z,1.48
2022-09-26T20:18:57.051Z,1.52
2022-09-26T20:21:30.471Z,2.08
2022-09-26T20:24:02.041Z,1.55
2022-09-26T20:26:34.662Z,1.50
2022-09-26T20:29:05.093Z,1.67
2022-09-26T20:31:35.673Z,1.33
2022-09-26T20:34:06.193Z,1.48
2022-09-26T20:36:37.330Z,1.58
2022-09-26T20:39:13.406Z,1.33
2022-09-26T20:41:44.992Z,1.85
2022-09-26T20:44:23.761Z,1.40
2022-09-26T20:46:58.777Z,1.88
2022-09-26T20:49:39.261Z,1.50
2022-09-26T20:52:22.394Z,1.60
2022-09-26T20:54:53.597Z,1.20
2022-09-26T20:57:26.067Z,1.60
2022-09-26T20:59:56.391Z,1.90
2022-09-26T21:02:33.929Z,1.55
2022-09-26T21:05:05.171Z,1.80
2022-09-26T21:07:35.713Z,1.40
2022-09-26T21:10:26.453Z,1.30
2022-09-26T21:12:57.401Z,1.90
2022-09-26T21:15:30.340Z,1.60
2022-09-26T21:18:02.604Z,2.85
2022-09-26T21:20:35.635Z,2.65
2022-09-26T21:23:16.487Z,2.20
2022-09-26T21:25:47.086Z,2.67
2022-09-26T21:28:29.498Z,2.33
2022-09-26T21:33:35.404Z,2.20
2022-09-26T21:36:05.968Z,2.22
2022-09-26T21:38:36.335Z,1.80
2022-09-26T21:41:07.181Z,2.05
2022-09-26T21:43:43.819Z,1.70
2022-09-26T21:46:14.375Z,1.70
2022-09-26T21:48:45.166Z,1.77
2022-09-26T21:51:15.740Z,1.60
2022-09-26T21:53:53.079Z,2.03
2022-09-26T21:56:27.133Z,2.15
2022-09-26T21:58:58.680Z,2.55
2022-09-26T22:01:29.133Z,1.88
2022-09-26T22:03:59.916Z,2.03
2022-09-26T22:06:30.330Z,2.03
2022-09-26T22:09:00.829Z,2.00
2022-09-26T22:11:32.430Z,2.63
2022-09-26T22:14:03.066Z,2.47
2022-09-26T22:16:33.805Z,2.33
2022-09-26T22:19:05.617Z,2.60
2022-09-26T22:21:36.039Z,2.15
2022-09-26T22:24:06.637Z,1.80
2022-09-26T22:26:36.963Z,2.70
2022-09-26T22:29:07.528Z,2.55
2022-09-26T22:31:37.630Z,2.08
2022-09-26T22:34:08.006Z,1.88
2022-09-26T22:36:38.497Z,2.30
2022-09-26T22:39:08.765Z,1.95
2022-09-26T22:41:39.189Z,2.20
2022-09-26T22:44:09.736Z,2.53
2022-09-26T22:46:40.114Z,2.53
2022-09-26T22:49:10.468Z,2.35
2022-09-26T22:51:40.802Z,2.15
2022-09-26T22:54:11.158Z,2.13
2022-09-26T22:56:41.639Z,2.50
2022-09-26T22:59:12.907Z,2.28
2022-09-26T23:01:43.386Z,2.60
2022-09-26T23:04:13.752Z,2.55
2022-09-26T23:06:44.123Z,2.40
2022-09-26T23:09:14.730Z,2.95
2022-09-26T23:11:45.245Z,2.60
2022-09-26T23:14:15.813Z,4.03
2022-09-26T23:16:46.170Z,3.28
2022-09-26T23:19:17.585Z,3.15
2022-09-26T23:21:48.457Z,3.55
2022-09-26T23:24:18.811Z,3.50
2022-09-26T23:26:49.352Z,3.70
2022-09-26T23:29:39.718Z,3.35
2022-09-26T23:32:10.288Z,4.95
2022-09-26T23:34:40.859Z,3.25
2022-09-26T23:37:11.290Z,3.22
2022-09-26T23:39:41.686Z,3.28
2022-09-26T23:42:12.824Z,3.33
2022-09-26T23:44:43.254Z,3.45
2022-09-26T23:47:13.634Z,3.22
2022-09-26T23:49:44.069Z,3.10
2022-09-26T23:52:14.535Z,3.45
2022-09-26T23:57:14.598Z,3.38
2022-09-26T23:59:45.347Z,3.30
